sensor_id;sensor_type;location;lat;lon;timestamp;temperature;humidity
69938;DHT22;57248;47.320;15.998;2023-03-12T00:01:23;2.83;51.99
69938;DHT22;57248;47.320;15.998;2023-03-12T00:03:56;2.71;52.52
69938;DHT22;57248;47.320;15.998;2023-03-12T00:06:28;2.76;53.21
69938;DHT22;57248;47.320;15.998;2023-03-12T00:09:00;2.83;50.63
69938;DHT22;57248;47.320;15.998;2023-03-12T00:11:33;2.83;51.01
69938;DHT22;57248;47.320;15.998;2023-03-12T00:14:05;2.76;51.85
69938;DHT22;57248;47.320;15.998;2023-03-12T00:16:37;2.76;51.30
69938;DHT22;57248;47.320;15.998;2023-03-12T00:19:10;2.83;52.21
69938;DHT22;57248;47.320;15.998;2023-03-12T00:21:43;2.88;51.17
69938;DHT22;57248;47.320;15.998;2023-03-12T00:24:22;2.82;50.41
69938;DHT22;57248;47.320;15.998;2023-03-12T00:26:54;2.81;51.16
69938;DHT22;57248;47.320;15.998;2023-03-12T00:29:33;2.91;50.17
69938;DHT22;57248;47.320;15.998;2023-03-12T00:32:06;2.78;51.74
69938;DHT22;57248;47.320;15.998;2023-03-12T00:34:38;2.56;52.98
69938;DHT22;57248;47.320;15.998;2023-03-12T00:37:10;2.42;54.08
69938;DHT22;57248;47.320;15.998;2023-03-12T00:39:35;2.34;54.58
69938;DHT22;57248;47.320;15.998;2023-03-12T00:42:07;2.42;55.44
69938;DHT22;57248;47.320;15.998;2023-03-12T00:44:39;2.37;56.00
69938;DHT22;57248;47.320;15.998;2023-03-12T00:47:11;2.10;55.38
69938;DHT22;57248;47.320;15.998;2023-03-12T00:49:44;1.99;56.56
69938;DHT22;57248;47.320;15.998;2023-03-12T00:52:16;2.02;56.52
69938;DHT22;57248;47.320;15.998;2023-03-12T00:54:48;2.03;57.11
69938;DHT22;57248;47.320;15.998;2023-03-12T00:57:21;1.93;57.96
69938;DHT22;57248;47.320;15.998;2023-03-12T00:59:53;1.48;60.26
69938;DHT22;57248;47.320;15.998;2023-03-12T01:02:25;1.60;58.25
69938;DHT22;57248;47.320;15.998;2023-03-12T01:04:57;1.46;58.82
69938;DHT22;57248;47.320;15.998;2023-03-12T01:07:29;1.60;58.21
69938;DHT22;57248;47.320;15.998;2023-03-12T01:10:01;1.41;60.84
69938;DHT22;57248;47.320;15.998;2023-03-12T01:12:34;1.36;61.43
69938;DHT22;57248;47.320;15.998;2023-03-12T01:15:08;1.30;61.97
69938;DHT22;57248;47.320;15.998;2023-03-12T01:17:40;1.03;61.99
69938;DHT22;57248;47.320;15.998;2023-03-12T01:20:12;0.85;62.63
69938;DHT22;57248;47.320;15.998;2023-03-12T01:22:59;0.83;62.74
69938;DHT22;57248;47.320;15.998;2023-03-12T01:25:31;0.85;62.28
69938;DHT22;57248;47.320;15.998;2023-03-12T01:28:10;0.87;62.98
69938;DHT22;57248;47.320;15.998;2023-03-12T01:30:42;0.62;64.17
69938;DHT22;57248;47.320;15.998;2023-03-12T01:33:15;0.49;64.56
69938;DHT22;57248;47.320;15.998;2023-03-12T01:35:47;0.21;65.63
69938;DHT22;57248;47.320;15.998;2023-03-12T01:38:19;0.30;64.55
69938;DHT22;57248;47.320;15.998;2023-03-12T01:40:51;0.22;65.18
69938;DHT22;57248;47.320;15.998;2023-03-12T01:46:23;-0.03;65.08
69938;DHT22;57248;47.320;15.998;2023-03-12T01:49:04;-0.06;65.53
69938;DHT22;57248;47.320;15.998;2023-03-12T01:51:49;-0.20;65.84
69938;DHT22;57248;47.320;15.998;2023-03-12T01:56:59;-0.36;66.86
69938;DHT22;57248;47.320;15.998;2023-03-12T01:59:38;-0.50;67.07
69938;DHT22;57248;47.320;15.998;2023-03-12T02:02:13;-0.50;66.61
69938;DHT22;57248;47.320;15.998;2023-03-12T02:04:46;-0.53;67.45
69938;DHT22;57248;47.320;15.998;2023-03-12T02:07:18;-0.53;68.56
69938;DHT22;57248;47.320;15.998;2023-03-12T02:09:51;-0.68;68.65
69938;DHT22;57248;47.320;15.998;2023-03-12T02:12:23;-0.78;68.84
69938;DHT22;57248;47.320;15.998;2023-03-12T02:14:55;-1.39;71.61
69938;DHT22;57248;47.320;15.998;2023-03-12T02:17:22;-1.12;69.68
69938;DHT22;57248;47.320;15.998;2023-03-12T02:22:40;-1.43;71.01
69938;DHT22;57248;47.320;15.998;2023-03-12T02:25:52;-1.18;70.03
69938;DHT22;57248;47.320;15.998;2023-03-12T02:28:28;-1.16;69.68
69938;DHT22;57248;47.320;15.998;2023-03-12T02:31:02;-1.12;69.85
69938;DHT22;57248;47.320;15.998;2023-03-12T02:33:29;-1.29;70.17
69938;DHT22;57248;47.320;15.998;2023-03-12T02:36:01;-1.57;73.50
69938;DHT22;57248;47.320;15.998;2023-03-12T02:38:37;-1.77;74.46
69938;DHT22;57248;47.320;15.998;2023-03-12T02:41:20;-1.57;72.66
69938;DHT22;57248;47.320;15.998;2023-03-12T02:44:09;-1.77;73.20
69938;DHT22;57248;47.320;15.998;2023-03-12T02:46:46;-1.62;72.74
69938;DHT22;57248;47.320;15.998;2023-03-12T02:49:19;-1.57;72.42
69938;DHT22;57248;47.320;15.998;2023-03-12T02:51:51;-1.64;72.51
69938;DHT22;57248;47.320;15.998;2023-03-12T02:54:25;-1.83;72.86
69938;DHT22;57248;47.320;15.998;2023-03-12T02:56:57;-2.05;74.76
69938;DHT22;57248;47.320;15.998;2023-03-12T02:59:31;-1.94;74.50
69938;DHT22;57248;47.320;15.998;2023-03-12T03:02:05;-1.91;74.39
69938;DHT22;57248;47.320;15.998;2023-03-12T03:04:37;-2.02;74.74
69938;DHT22;57248;47.320;15.998;2023-03-12T03:07:10;-1.80;73.94
69938;DHT22;57248;47.320;15.998;2023-03-12T03:09:42;-1.98;73.96
69938;DHT22;57248;47.320;15.998;2023-03-12T03:12:14;-1.95;73.50
69938;DHT22;57248;47.320;15.998;2023-03-12T03:14:46;-1.99;74.60
69938;DHT22;57248;47.320;15.998;2023-03-12T03:17:18;-1.94;74.19
69938;DHT22;57248;47.320;15.998;2023-03-12T03:19:50;-1.99;74.26
69938;DHT22;57248;47.320;15.998;2023-03-12T03:22:22;-2.15;74.91
69938;DHT22;57248;47.320;15.998;2023-03-12T03:24:54;-2.08;74.36
69938;DHT22;57248;47.320;15.998;2023-03-12T03:27:33;-2.14;75.07
69938;DHT22;57248;47.320;15.998;2023-03-12T03:30:05;-2.25;75.77
69938;DHT22;57248;47.320;15.998;2023-03-12T03:32:42;-2.31;75.98
69938;DHT22;57248;47.320;15.998;2023-03-12T03:35:15;-2.08;74.29
69938;DHT22;57248;47.320;15.998;2023-03-12T03:37:48;-2.19;74.53
69938;DHT22;57248;47.320;15.998;2023-03-12T03:40:20;-2.18;74.57
69938;DHT22;57248;47.320;15.998;2023-03-12T03:42:52;-2.25;75.21
69938;DHT22;57248;47.320;15.998;2023-03-12T03:45:24;-2.41;76.41
69938;DHT22;57248;47.320;15.998;2023-03-12T03:47:57;-2.39;76.07
69938;DHT22;57248;47.320;15.998;2023-03-12T03:50:29;-2.34;75.93
69938;DHT22;57248;47.320;15.998;2023-03-12T03:53:03;-2.39;76.55
69938;DHT22;57248;47.320;15.998;2023-03-12T03:55:36;-2.42;76.57
69938;DHT22;57248;47.320;15.998;2023-03-12T03:58:08;-2.46;76.25
69938;DHT22;57248;47.320;15.998;2023-03-12T04:00:47;-2.53;75.68
69938;DHT22;57248;47.320;15.998;2023-03-12T04:03:13;-2.62;76.69
69938;DHT22;57248;47.320;15.998;2023-03-12T04:05:45;-2.52;76.06
69938;DHT22;57248;47.320;15.998;2023-03-12T04:08:17;-2.50;75.85
69938;DHT22;57248;47.320;15.998;2023-03-12T04:10:49;-2.50;76.09
69938;DHT22;57248;47.320;15.998;2023-03-12T04:13:21;-2.65;75.75
69938;DHT22;57248;47.320;15.998;2023-03-12T04:15:53;-2.66;76.83
69938;DHT22;57248;47.320;15.998;2023-03-12T04:18:25;-2.72;76.23
69938;DHT22;57248;47.320;15.998;2023-03-12T04:20:59;-2.69;76.51
69938;DHT22;57248;47.320;15.998;2023-03-12T04:23:38;-2.72;76.81
69938;DHT22;57248;47.320;15.998;2023-03-12T04:26:20;-2.69;76.70
69938;DHT22;57248;47.320;15.998;2023-03-12T04:28:53;-2.77;76.89
69938;DHT22;57248;47.320;15.998;2023-03-12T04:31:26;-2.86;76.19
69938;DHT22;57248;47.320;15.998;2023-03-12T04:33:59;-2.91;77.32
69938;DHT22;57248;47.320;15.998;2023-03-12T04:36:31;-2.90;76.75
69938;DHT22;57248;47.320;15.998;2023-03-12T04:39:03;-3.01;77.49
69938;DHT22;57248;47.320;15.998;2023-03-12T04:41:39;-2.86;76.71
69938;DHT22;57248;47.320;15.998;2023-03-12T04:44:14;-2.94;76.78
69938;DHT22;57248;47.320;15.998;2023-03-12T04:46:47;-3.05;77.09
69938;DHT22;57248;47.320;15.998;2023-03-12T04:49:22;-3.04;77.38
69938;DHT22;57248;47.320;15.998;2023-03-12T04:51:54;-3.18;78.03
69938;DHT22;57248;47.320;15.998;2023-03-12T04:54:26;-3.12;77.79
69938;DHT22;57248;47.320;15.998;2023-03-12T04:56:59;-3.09;77.70
69938;DHT22;57248;47.320;15.998;2023-03-12T04:59:31;-3.11;78.00
69938;DHT22;57248;47.320;15.998;2023-03-12T05:02:03;-3.17;78.05
69938;DHT22;57248;47.320;15.998;2023-03-12T05:04:35;-3.25;78.28
69938;DHT22;57248;47.320;15.998;2023-03-12T05:07:07;-3.32;78.14
69938;DHT22;57248;47.320;15.998;2023-03-12T05:09:39;-3.38;77.85
69938;DHT22;57248;47.320;15.998;2023-03-12T05:12:11;-3.37;77.68
69938;DHT22;57248;47.320;15.998;2023-03-12T05:14:44;-3.35;77.92
69938;DHT22;57248;47.320;15.998;2023-03-12T05:17:17;-3.48;77.97
69938;DHT22;57248;47.320;15.998;2023-03-12T05:19:49;-3.39;78.20
69938;DHT22;57248;47.320;15.998;2023-03-12T05:22:21;-3.32;78.58
69938;DHT22;57248;47.320;15.998;2023-03-12T05:25:01;-3.41;77.63
69938;DHT22;57248;47.320;15.998;2023-03-12T05:27:36;-3.42;78.90
69938;DHT22;57248;47.320;15.998;2023-03-12T05:30:15;-3.51;78.80
69938;DHT22;57248;47.320;15.998;2023-03-12T05:32:48;-3.38;78.66
69938;DHT22;57248;47.320;15.998;2023-03-12T05:35:23;-3.39;79.00
69938;DHT22;57248;47.320;15.998;2023-03-12T05:37:55;-3.37;78.54
69938;DHT22;57248;47.320;15.998;2023-03-12T05:40:29;-3.39;78.85
69938;DHT22;57248;47.320;15.998;2023-03-12T05:43:01;-3.39;78.82
69938;DHT22;57248;47.320;15.998;2023-03-12T05:45:33;-3.34;79.12
69938;DHT22;57248;47.320;15.998;2023-03-12T05:48:05;-3.48;79.67
69938;DHT22;57248;47.320;15.998;2023-03-12T05:50:38;-3.42;79.30
69938;DHT22;57248;47.320;15.998;2023-03-12T05:53:10;-3.41;80.08
69938;DHT22;57248;47.320;15.998;2023-03-12T05:55:44;-3.27;79.17
69938;DHT22;57248;47.320;15.998;2023-03-12T05:58:16;-3.11;78.32
69938;DHT22;57248;47.320;15.998;2023-03-12T06:00:50;-3.07;78.78
69938;DHT22;57248;47.320;15.998;2023-03-12T06:03:22;-2.87;77.69
69938;DHT22;57248;47.320;15.998;2023-03-12T06:05:54;-2.70;78.43
69938;DHT22;57248;47.320;15.998;2023-03-12T06:08:27;-2.49;77.92
69938;DHT22;57248;47.320;15.998;2023-03-12T06:10:59;-2.38;77.13
69938;DHT22;57248;47.320;15.998;2023-03-12T06:13:31;-2.38;77.71
69938;DHT22;57248;47.320;15.998;2023-03-12T06:16:06;-2.15;76.73
69938;DHT22;57248;47.320;15.998;2023-03-12T06:18:38;-1.90;76.18
69938;DHT22;57248;47.320;15.998;2023-03-12T06:21:19;-1.90;76.24
69938;DHT22;57248;47.320;15.998;2023-03-12T06:23:52;-1.59;74.57
69938;DHT22;57248;47.320;15.998;2023-03-12T06:26:45;-1.12;73.45
69938;DHT22;57248;47.320;15.998;2023-03-12T06:29:17;-0.84;72.79
69938;DHT22;57248;47.320;15.998;2023-03-12T06:31:49;-0.53;72.48
69938;DHT22;57248;47.320;15.998;2023-03-12T06:34:16;-0.38;72.31
69938;DHT22;57248;47.320;15.998;2023-03-12T06:36:49;0.06;69.78
69938;DHT22;57248;47.320;15.998;2023-03-12T06:39:15;0.41;68.85
69938;DHT22;57248;47.320;15.998;2023-03-12T06:41:47;0.35;68.34
69938;DHT22;57248;47.320;15.998;2023-03-12T06:44:19;0.45;69.04
69938;DHT22;57248;47.320;15.998;2023-03-12T06:46:44;0.76;67.99
69938;DHT22;57248;47.320;15.998;2023-03-12T06:49:17;1.03;66.09
69938;DHT22;57248;47.320;15.998;2023-03-12T06:51:42;1.62;65.61
69938;DHT22;57248;47.320;15.998;2023-03-12T06:54:14;1.65;63.29
69938;DHT22;57248;47.320;15.998;2023-03-12T06:56:46;2.04;63.56
69938;DHT22;57248;47.320;15.998;2023-03-12T06:59:18;2.02;63.20
69938;DHT22;57248;47.320;15.998;2023-03-12T07:01:52;2.58;62.70
69938;DHT22;57248;47.320;15.998;2023-03-12T07:04:24;2.91;62.32
69938;DHT22;57248;47.320;15.998;2023-03-12T07:06:56;3.35;60.82
69938;DHT22;57248;47.320;15.998;2023-03-12T07:09:28;3.30;59.72
69938;DHT22;57248;47.320;15.998;2023-03-12T07:12:02;3.63;59.52
69938;DHT22;57248;47.320;15.998;2023-03-12T07:14:35;4.17;58.14
69938;DHT22;57248;47.320;15.998;2023-03-12T07:17:07;4.46;57.55
69938;DHT22;57248;47.320;15.998;2023-03-12T07:19:40;4.40;57.44
69938;DHT22;57248;47.320;15.998;2023-03-12T07:22:13;4.58;56.05
69938;DHT22;57248;47.320;15.998;2023-03-12T07:24:46;5.02;56.38
69938;DHT22;57248;47.320;15.998;2023-03-12T07:27:32;5.19;56.02
69938;DHT22;57248;47.320;15.998;2023-03-12T07:30:04;5.66;54.95
69938;DHT22;57248;47.320;15.998;2023-03-12T07:32:37;5.59;54.10
69938;DHT22;57248;47.320;15.998;2023-03-12T07:35:10;5.74;54.69
69938;DHT22;57248;47.320;15.998;2023-03-12T07:37:42;5.90;54.16
69938;DHT22;57248;47.320;15.998;2023-03-12T07:40:08;6.10;54.77
69938;DHT22;57248;47.320;15.998;2023-03-12T07:42:41;6.08;54.47
69938;DHT22;57248;47.320;15.998;2023-03-12T07:45:13;6.80;52.05
69938;DHT22;57248;47.320;15.998;2023-03-12T07:47:45;6.11;51.81
69938;DHT22;57248;47.320;15.998;2023-03-12T07:50:18;6.07;52.77
69938;DHT22;57248;47.320;15.998;2023-03-12T07:52:52;5.69;52.58
69938;DHT22;57248;47.320;15.998;2023-03-12T07:55:25;6.65;51.37
69938;DHT22;57248;47.320;15.998;2023-03-12T07:57:57;6.43;49.12
69938;DHT22;57248;47.320;15.998;2023-03-12T08:00:31;5.62;50.93
69938;DHT22;57248;47.320;15.998;2023-03-12T08:03:03;5.25;52.23
69938;DHT22;57248;47.320;15.998;2023-03-12T08:05:35;4.94;51.63
69938;DHT22;57248;47.320;15.998;2023-03-12T08:08:07;5.29;50.80
69938;DHT22;57248;47.320;15.998;2023-03-12T08:10:33;5.78;50.52
69938;DHT22;57248;47.320;15.998;2023-03-12T08:13:05;5.80;50.37
69938;DHT22;57248;47.320;15.998;2023-03-12T08:15:37;6.41;48.98
69938;DHT22;57248;47.320;15.998;2023-03-12T08:18:09;6.11;51.04
69938;DHT22;57248;47.320;15.998;2023-03-12T08:20:41;5.69;50.09
69938;DHT22;57248;47.320;15.998;2023-03-12T08:23:13;6.11;49.94
69938;DHT22;57248;47.320;15.998;2023-03-12T08:25:47;6.61;47.90
69938;DHT22;57248;47.320;15.998;2023-03-12T08:28:20;7.05;47.43
69938;DHT22;57248;47.320;15.998;2023-03-12T08:30:54;7.38;46.66
69938;DHT22;57248;47.320;15.998;2023-03-12T08:33:26;7.54;46.63
69938;DHT22;57248;47.320;15.998;2023-03-12T08:35:58;6.55;46.85
69938;DHT22;57248;47.320;15.998;2023-03-12T08:38:23;7.72;46.06
69938;DHT22;57248;47.320;15.998;2023-03-12T08:40:56;9.84;43.05
69938;DHT22;57248;47.320;15.998;2023-03-12T08:43:29;8.43;44.02
69938;DHT22;57248;47.320;15.998;2023-03-12T08:46:02;9.23;42.26
69938;DHT22;57248;47.320;15.998;2023-03-12T08:48:34;10.53;40.42
69938;DHT22;57248;47.320;15.998;2023-03-12T08:51:06;9.55;41.76
69938;DHT22;57248;47.320;15.998;2023-03-12T08:53:39;9.36;41.33
69938;DHT22;57248;47.320;15.998;2023-03-12T08:56:12;10.53;39.80
69938;DHT22;57248;47.320;15.998;2023-03-12T08:58:37;10.66;39.10
69938;DHT22;57248;47.320;15.998;2023-03-12T09:01:12;9.33;40.98
69938;DHT22;57248;47.320;15.998;2023-03-12T09:03:44;12.17;37.69
69938;DHT22;57248;47.320;15.998;2023-03-12T09:06:17;11.08;39.44
69938;DHT22;57248;47.320;15.998;2023-03-12T09:08:50;12.00;37.16
69938;DHT22;57248;47.320;15.998;2023-03-12T09:11:22;11.61;38.11
69938;DHT22;57248;47.320;15.998;2023-03-12T09:13:54;13.66;35.17
69938;DHT22;57248;47.320;15.998;2023-03-12T09:16:26;11.68;36.86
69938;DHT22;57248;47.320;15.998;2023-03-12T09:18:52;12.96;38.52
69938;DHT22;57248;47.320;15.998;2023-03-12T09:21:24;12.50;35.62
69938;DHT22;57248;47.320;15.998;2023-03-12T09:23:57;12.77;38.21
69938;DHT22;57248;47.320;15.998;2023-03-12T09:26:43;12.84;36.42
69938;DHT22;57248;47.320;15.998;2023-03-12T09:29:16;12.74;34.50
69938;DHT22;57248;47.320;15.998;2023-03-12T09:31:48;12.77;33.42
69938;DHT22;57248;47.320;15.998;2023-03-12T09:34:20;15.72;34.63
69938;DHT22;57248;47.320;15.998;2023-03-12T09:36:53;15.57;31.53
69938;DHT22;57248;47.320;15.998;2023-03-12T09:39:25;14.46;31.16
69938;DHT22;57248;47.320;15.998;2023-03-12T09:41:57;12.42;35.71
69938;DHT22;57248;47.320;15.998;2023-03-12T09:44:43;12.42;34.92
69938;DHT22;57248;47.320;15.998;2023-03-12T09:47:41;12.87;35.38
69938;DHT22;57248;47.320;15.998;2023-03-12T09:50:35;11.43;35.23
69938;DHT22;57248;47.320;15.998;2023-03-12T09:53:17;11.12;37.05
69938;DHT22;57248;47.320;15.998;2023-03-12T09:55:55;10.99;35.69
69938;DHT22;57248;47.320;15.998;2023-03-12T09:58:30;11.54;35.82
69938;DHT22;57248;47.320;15.998;2023-03-12T10:07:17;11.69;35.85
69938;DHT22;57248;47.320;15.998;2023-03-12T10:15:56;13.85;32.90
69938;DHT22;57248;47.320;15.998;2023-03-12T10:18:53;12.34;34.60
69938;DHT22;57248;47.320;15.998;2023-03-12T10:21:54;13.63;33.02
69938;DHT22;57248;47.320;15.998;2023-03-12T10:27:26;13.63;32.01
69938;DHT22;57248;47.320;15.998;2023-03-12T10:30:00;13.64;35.64
69938;DHT22;57248;47.320;15.998;2023-03-12T10:35:17;12.01;34.14
69938;DHT22;57248;47.320;15.998;2023-03-12T10:37:52;12.91;34.68
69938;DHT22;57248;47.320;15.998;2023-03-12T10:40:27;13.13;33.89
69938;DHT22;57248;47.320;15.998;2023-03-12T10:43:01;11.46;36.68
69938;DHT22;57248;47.320;15.998;2023-03-12T10:48:31;13.19;34.38
69938;DHT22;57248;47.320;15.998;2023-03-12T10:51:07;13.39;33.52
69938;DHT22;57248;47.320;15.998;2023-03-12T10:53:43;15.00;31.81
69938;DHT22;57248;47.320;15.998;2023-03-12T10:56:19;13.38;33.50
69938;DHT22;57248;47.320;15.998;2023-03-12T10:58:52;14.01;32.98
69938;DHT22;57248;47.320;15.998;2023-03-12T11:01:27;14.65;31.54
69938;DHT22;57248;47.320;15.998;2023-03-12T11:09:43;14.45;31.69
69938;DHT22;57248;47.320;15.998;2023-03-12T11:14:56;13.98;31.03
69938;DHT22;57248;47.320;15.998;2023-03-12T11:17:28;11.99;34.22
69938;DHT22;57248;47.320;15.998;2023-03-12T11:20:26;14.04;32.91
69938;DHT22;57248;47.320;15.998;2023-03-12T11:23:28;16.06;30.16
69938;DHT22;57248;47.320;15.998;2023-03-12T11:26:13;14.08;32.94
69938;DHT22;57248;47.320;15.998;2023-03-12T11:29:17;15.83;31.19
69938;DHT22;57248;47.320;15.998;2023-03-12T11:34:35;13.12;33.82
69938;DHT22;57248;47.320;15.998;2023-03-12T11:48:44;11.71;35.75
69938;DHT22;57248;47.320;15.998;2023-03-12T11:51:25;11.86;36.41
69938;DHT22;57248;47.320;15.998;2023-03-12T11:56:56;13.92;33.23
69938;DHT22;57248;47.320;15.998;2023-03-12T12:03:11;16.72;30.40
69938;DHT22;57248;47.320;15.998;2023-03-12T12:06:03;15.57;30.51
69938;DHT22;57248;47.320;15.998;2023-03-12T12:11:39;13.51;34.21
69938;DHT22;57248;47.320;15.998;2023-03-12T12:20:19;11.57;38.13
69938;DHT22;57248;47.320;15.998;2023-03-12T12:23:17;11.30;37.66
69938;DHT22;57248;47.320;15.998;2023-03-12T12:26:36;14.87;33.19
69938;DHT22;57248;47.320;15.998;2023-03-12T12:32:05;16.44;29.78
69938;DHT22;57248;47.320;15.998;2023-03-12T12:40:02;12.17;36.36
69938;DHT22;57248;47.320;15.998;2023-03-12T12:42:49;10.64;38.90
69938;DHT22;57248;47.320;15.998;2023-03-12T12:45:23;11.17;38.22
69938;DHT22;57248;47.320;15.998;2023-03-12T12:48:17;11.79;38.96
69938;DHT22;57248;47.320;15.998;2023-03-12T12:50:53;11.03;38.66
69938;DHT22;57248;47.320;15.998;2023-03-12T12:53:46;13.23;35.99
69938;DHT22;57248;47.320;15.998;2023-03-12T12:56:27;16.31;31.76
69938;DHT22;57248;47.320;15.998;2023-03-12T12:59:35;18.80;28.99
69938;DHT22;57248;47.320;15.998;2023-03-12T13:02:20;18.53;28.66
69938;DHT22;57248;47.320;15.998;2023-03-12T13:04:57;16.78;29.75
69938;DHT22;57248;47.320;15.998;2023-03-12T13:07:31;14.93;32.70
69938;DHT22;57248;47.320;15.998;2023-03-12T13:10:06;16.31;31.21
69938;DHT22;57248;47.320;15.998;2023-03-12T13:13:17;17.12;30.17
69938;DHT22;57248;47.320;15.998;2023-03-12T13:15:50;15.61;31.20
69938;DHT22;57248;47.320;15.998;2023-03-12T13:18:25;16.64;30.36
69938;DHT22;57248;47.320;15.998;2023-03-12T13:21:21;16.50;30.97
69938;DHT22;57248;47.320;15.998;2023-03-12T13:27:09;13.81;34.46
69938;DHT22;57248;47.320;15.998;2023-03-12T13:29:51;16.54;30.16
69938;DHT22;57248;47.320;15.998;2023-03-12T13:33:03;13.32;34.11
69938;DHT22;57248;47.320;15.998;2023-03-12T13:35:35;15.85;32.15
69938;DHT22;57248;47.320;15.998;2023-03-12T13:38:11;14.76;33.70
69938;DHT22;57248;47.320;15.998;2023-03-12T13:40:57;13.94;34.60
69938;DHT22;57248;47.320;15.998;2023-03-12T13:43:47;11.96;37.87
69938;DHT22;57248;47.320;15.998;2023-03-12T13:46:40;12.17;38.84
69938;DHT22;57248;47.320;15.998;2023-03-12T13:49:14;12.47;37.18
69938;DHT22;57248;47.320;15.998;2023-03-12T13:54:49;13.94;34.89
69938;DHT22;57248;47.320;15.998;2023-03-12T14:00:19;13.53;36.98
69938;DHT22;57248;47.320;15.998;2023-03-12T14:02:57;12.06;38.98
69938;DHT22;57248;47.320;15.998;2023-03-12T14:05:34;12.65;38.59
69938;DHT22;57248;47.320;15.998;2023-03-12T14:08:32;11.87;39.37
69938;DHT22;57248;47.320;15.998;2023-03-12T14:11:29;11.87;39.86
69938;DHT22;57248;47.320;15.998;2023-03-12T14:17:27;12.98;40.97
69938;DHT22;57248;47.320;15.998;2023-03-12T14:20:19;15.17;35.47
69938;DHT22;57248;47.320;15.998;2023-03-12T14:23:04;13.78;38.70
69938;DHT22;57248;47.320;15.998;2023-03-12T14:25:57;11.90;41.27
69938;DHT22;57248;47.320;15.998;2023-03-12T14:28:32;11.59;43.32
69938;DHT22;57248;47.320;15.998;2023-03-12T14:31:12;11.11;43.89
69938;DHT22;57248;47.320;15.998;2023-03-12T14:33:56;11.31;44.11
69938;DHT22;57248;47.320;15.998;2023-03-12T14:36:43;11.58;44.46
69938;DHT22;57248;47.320;15.998;2023-03-12T14:39:23;12.50;44.67
69938;DHT22;57248;47.320;15.998;2023-03-12T14:42:06;12.20;43.80
69938;DHT22;57248;47.320;15.998;2023-03-12T14:45:02;12.10;44.09
69938;DHT22;57248;47.320;15.998;2023-03-12T14:47:43;11.51;44.26
69938;DHT22;57248;47.320;15.998;2023-03-12T14:50:24;11.42;44.90
69938;DHT22;57248;47.320;15.998;2023-03-12T14:56:19;11.82;44.46
69938;DHT22;57248;47.320;15.998;2023-03-12T14:58:57;12.07;44.10
69938;DHT22;57248;47.320;15.998;2023-03-12T15:01:31;12.09;43.97
69938;DHT22;57248;47.320;15.998;2023-03-12T15:04:15;11.45;45.54
69938;DHT22;57248;47.320;15.998;2023-03-12T15:06:56;12.14;43.24
69938;DHT22;57248;47.320;15.998;2023-03-12T15:09:31;12.57;43.65
69938;DHT22;57248;47.320;15.998;2023-03-12T15:12:06;12.20;44.19
69938;DHT22;57248;47.320;15.998;2023-03-12T15:14:40;12.85;43.45
69938;DHT22;57248;47.320;15.998;2023-03-12T15:17:18;12.93;42.65
69938;DHT22;57248;47.320;15.998;2023-03-12T15:19:51;13.98;41.01
69938;DHT22;57248;47.320;15.998;2023-03-12T15:22:26;13.90;40.79
69938;DHT22;57248;47.320;15.998;2023-03-12T15:25:03;13.82;42.55
69938;DHT22;57248;47.320;15.998;2023-03-12T15:30:34;12.65;42.34
69938;DHT22;57248;47.320;15.998;2023-03-12T15:38:34;11.75;43.30
69938;DHT22;57248;47.320;15.998;2023-03-12T15:41:08;11.35;43.77
69938;DHT22;57248;47.320;15.998;2023-03-12T15:43:42;11.38;44.03
69938;DHT22;57248;47.320;15.998;2023-03-12T15:46:16;11.03;47.09
69938;DHT22;57248;47.320;15.998;2023-03-12T15:48:51;11.14;45.29
69938;DHT22;57248;47.320;15.998;2023-03-12T15:51:35;11.03;45.88
69938;DHT22;57248;47.320;15.998;2023-03-12T15:56:49;11.07;44.51
69938;DHT22;57248;47.320;15.998;2023-03-12T15:59:26;10.15;45.95
69938;DHT22;57248;47.320;15.998;2023-03-12T16:01:59;10.01;46.36
69938;DHT22;57248;47.320;15.998;2023-03-12T16:04:31;9.87;46.72
69938;DHT22;57248;47.320;15.998;2023-03-12T16:07:09;9.84;46.99
69938;DHT22;57248;47.320;15.998;2023-03-12T16:09:42;9.73;47.38
69938;DHT22;57248;47.320;15.998;2023-03-12T16:12:14;9.94;46.90
69938;DHT22;57248;47.320;15.998;2023-03-12T16:14:47;9.73;46.81
69938;DHT22;57248;47.320;15.998;2023-03-12T16:17:20;9.61;47.54
69938;DHT22;57248;47.320;15.998;2023-03-12T16:19:52;9.65;47.89
69938;DHT22;57248;47.320;15.998;2023-03-12T16:22:24;9.22;48.89
69938;DHT22;57248;47.320;15.998;2023-03-12T16:24:56;8.91;49.74
69938;DHT22;57248;47.320;15.998;2023-03-12T16:27:38;8.89;49.96
69938;DHT22;57248;47.320;15.998;2023-03-12T16:32:55;8.84;50.25
69938;DHT22;57248;47.320;15.998;2023-03-12T16:35:29;8.84;50.27
69938;DHT22;57248;47.320;15.998;2023-03-12T16:38:04;8.79;50.26
69938;DHT22;57248;47.320;15.998;2023-03-12T16:40:39;8.57;50.47
69938;DHT22;57248;47.320;15.998;2023-03-12T16:43:24;8.27;51.16
69938;DHT22;57248;47.320;15.998;2023-03-12T16:45:58;8.07;52.12
69938;DHT22;57248;47.320;15.998;2023-03-12T16:48:30;7.97;52.97
69938;DHT22;57248;47.320;15.998;2023-03-12T16:51:02;7.55;54.76
69938;DHT22;57248;47.320;15.998;2023-03-12T16:53:34;7.81;57.58
69938;DHT22;57248;47.320;15.998;2023-03-12T16:56:19;7.81;54.44
69938;DHT22;57248;47.320;15.998;2023-03-12T16:58:52;8.34;54.65
69938;DHT22;57248;47.320;15.998;2023-03-12T17:01:25;7.78;56.06
69938;DHT22;57248;47.320;15.998;2023-03-12T17:03:59;7.56;57.24
69938;DHT22;57248;47.320;15.998;2023-03-12T17:06:32;6.92;58.94
69938;DHT22;57248;47.320;15.998;2023-03-12T17:09:05;7.03;58.93
69938;DHT22;57248;47.320;15.998;2023-03-12T17:11:39;7.07;58.90
69938;DHT22;57248;47.320;15.998;2023-03-12T17:14:19;6.94;59.05
69938;DHT22;57248;47.320;15.998;2023-03-12T17:16:52;6.76;59.10
69938;DHT22;57248;47.320;15.998;2023-03-12T17:19:24;6.53;59.80
69938;DHT22;57248;47.320;15.998;2023-03-12T17:21:49;6.56;59.58
69938;DHT22;57248;47.320;15.998;2023-03-12T17:24:22;5.81;62.89
69938;DHT22;57248;47.320;15.998;2023-03-12T17:26:58;5.60;65.11
69938;DHT22;57248;47.320;15.998;2023-03-12T17:29:37;5.73;63.52
69938;DHT22;57248;47.320;15.998;2023-03-12T17:32:09;8.27;82.33
69938;DHT22;57248;47.320;15.998;2023-03-12T17:34:43;10.43;73.64
69938;DHT22;57248;47.320;15.998;2023-03-12T17:37:15;7.82;65.85
69938;DHT22;57248;47.320;15.998;2023-03-12T17:39:47;7.63;70.75
69938;DHT22;57248;47.320;15.998;2023-03-12T17:42:19;6.73;62.23
69938;DHT22;57248;47.320;15.998;2023-03-12T17:44:52;6.12;63.52
69938;DHT22;57248;47.320;15.998;2023-03-12T17:47:24;5.83;65.22
69938;DHT22;57248;47.320;15.998;2023-03-12T17:49:58;5.71;64.25
69938;DHT22;57248;47.320;15.998;2023-03-12T17:52:30;5.52;65.10
69938;DHT22;57248;47.320;15.998;2023-03-12T17:55:02;5.18;65.98
69938;DHT22;57248;47.320;15.998;2023-03-12T17:57:35;4.47;68.50
69938;DHT22;57248;47.320;15.998;2023-03-12T18:00:09;4.78;67.09